sensor_id;sensor_type;location;lat;lon;timestamp;pressure;altitude;pressure_sealevel;temperature;humidity
57086;BME280;42964;42.910;23.792;2022-12-31T00:04:10;98654.53;;;4.61;81.51
57086;BME280;42964;42.910;23.792;2022-12-31T00:09:09;98656.34;;;4.63;81.83
57086;BME280;42964;42.910;23.792;2022-12-31T00:14:08;98662.59;;;4.70;81.76
57086;BME280;42964;42.910;23.792;2022-12-31T00:19:09;98661.91;;;4.76;81.63
57086;BME280;42964;42.910;23.792;2022-12-31T00:24:10;98658.81;;;4.84;81.57
57086;BME280;42964;42.910;23.792;2022-12-31T00:29:09;98650.16;;;4.82;81.72
57086;BME280;42964;42.910;23.792;2022-12-31T00:34:08;98662.25;;;4.85;81.71
57086;BME280;42964;42.910;23.792;2022-12-31T00:39:09;98662.91;;;4.79;81.80
57086;BME280;42964;42.910;23.792;2022-12-31T00:44:10;98675.84;;;4.81;81.58
57086;BME280;42964;42.910;23.792;2022-12-31T00:49:09;98687.00;;;4.81;81.85
57086;BME280;42964;42.910;23.792;2022-12-31T00:54:09;98683.56;;;4.81;82.29
57086;BME280;42964;42.910;23.792;2022-12-31T00:59:07;98682.81;;;4.85;82.31
57086;BME280;42964;42.910;23.792;2022-12-31T01:04:15;98695.41;;;4.77;82.31
57086;BME280;42964;42.910;23.792;2022-12-31T01:09:17;98697.81;;;4.72;82.63
57086;BME280;42964;42.910;23.792;2022-12-31T01:14:17;98699.84;;;4.81;82.49
57086;BME280;42964;42.910;23.792;2022-12-31T01:19:21;98706.69;;;4.81;82.41
57086;BME280;42964;42.910;23.792;2022-12-31T01:24:21;98700.81;;;4.85;82.66
57086;BME280;42964;42.910;23.792;2022-12-31T01:29:20;98694.19;;;4.90;82.65
57086;BME280;42964;42.910;23.792;2022-12-31T01:34:19;98682.19;;;4.90;82.17
57086;BME280;42964;42.910;23.792;2022-12-31T01:39:18;98698.88;;;5.00;82.68
57086;BME280;42964;42.910;23.792;2022-12-31T01:49:33;98699.78;;;5.02;82.47
57086;BME280;42964;42.910;23.792;2022-12-31T01:54:38;98700.50;;;4.98;83.13
57086;BME280;42964;42.910;23.792;2022-12-31T01:59:39;98697.94;;;4.98;83.03
57086;BME280;42964;42.910;23.792;2022-12-31T02:04:38;98700.91;;;4.86;83.60
57086;BME280;42964;42.910;23.792;2022-12-31T02:09:39;98699.44;;;4.93;83.21
57086;BME280;42964;42.910;23.792;2022-12-31T02:14:47;98704.09;;;5.03;82.89
57086;BME280;42964;42.910;23.792;2022-12-31T02:30:30;98706.94;;;5.11;82.71
57086;BME280;42964;42.910;23.792;2022-12-31T02:35:51;98728.28;;;5.08;83.04
57086;BME280;42964;42.910;23.792;2022-12-31T02:40:53;98734.03;;;5.01;82.92
57086;BME280;42964;42.910;23.792;2022-12-31T02:46:15;98733.16;;;5.01;83.04
57086;BME280;42964;42.910;23.792;2022-12-31T02:57:16;98735.56;;;5.19;82.35
57086;BME280;42964;42.910;23.792;2022-12-31T03:02:20;98732.31;;;5.24;82.60
57086;BME280;42964;42.910;23.792;2022-12-31T03:07:23;98720.22;;;5.22;82.39
57086;BME280;42964;42.910;23.792;2022-12-31T03:12:25;98724.91;;;5.09;82.57
57086;BME280;42964;42.910;23.792;2022-12-31T03:22:47;98721.47;;;4.86;83.26
57086;BME280;42964;42.910;23.792;2022-12-31T03:27:47;98705.81;;;4.80;83.22
57086;BME280;42964;42.910;23.792;2022-12-31T03:32:47;98719.97;;;4.69;83.69
57086;BME280;42964;42.910;23.792;2022-12-31T03:37:47;98730.88;;;4.63;83.83
57086;BME280;42964;42.910;23.792;2022-12-31T03:42:46;98734.97;;;4.58;83.78
57086;BME280;42964;42.910;23.792;2022-12-31T03:47:45;98739.84;;;4.50;83.80
57086;BME280;42964;42.910;23.792;2022-12-31T03:52:45;98732.72;;;4.43;83.97
57086;BME280;42964;42.910;23.792;2022-12-31T03:57:44;98734.38;;;4.20;84.47
57086;BME280;42964;42.910;23.792;2022-12-31T04:02:44;98749.28;;;4.08;84.80
57086;BME280;42964;42.910;23.792;2022-12-31T04:07:43;98741.22;;;3.99;84.53
57086;BME280;42964;42.910;23.792;2022-12-31T04:12:43;98747.72;;;3.91;84.94
57086;BME280;42964;42.910;23.792;2022-12-31T04:17:42;98745.63;;;3.82;84.71
57086;BME280;42964;42.910;23.792;2022-12-31T04:22:41;98727.53;;;3.58;84.64
57086;BME280;42964;42.910;23.792;2022-12-31T04:27:41;98761.84;;;3.60;84.78
57086;BME280;42964;42.910;23.792;2022-12-31T04:32:43;98766.66;;;3.52;85.22
57086;BME280;42964;42.910;23.792;2022-12-31T04:37:42;98783.47;;;3.46;85.96
57086;BME280;42964;42.910;23.792;2022-12-31T04:42:41;98781.63;;;3.43;85.76
57086;BME280;42964;42.910;23.792;2022-12-31T04:47:40;98787.44;;;3.39;85.86
57086;BME280;42964;42.910;23.792;2022-12-31T04:52:39;98789.69;;;3.31;85.82
57086;BME280;42964;42.910;23.792;2022-12-31T04:57:40;98795.28;;;3.22;86.00
57086;BME280;42964;42.910;23.792;2022-12-31T05:02:39;98799.91;;;3.12;86.56
57086;BME280;42964;42.910;23.792;2022-12-31T05:07:38;98804.56;;;3.01;87.05
57086;BME280;42964;42.910;23.792;2022-12-31T05:12:36;98810.13;;;2.92;87.41
57086;BME280;42964;42.910;23.792;2022-12-31T05:17:35;98822.00;;;2.90;87.14
57086;BME280;42964;42.910;23.792;2022-12-31T05:22:35;98821.13;;;2.90;87.66
57086;BME280;42964;42.910;23.792;2022-12-31T05:27:34;98829.44;;;2.84;87.76
57086;BME280;42964;42.910;23.792;2022-12-31T05:32:35;98824.81;;;2.77;88.22
57086;BME280;42964;42.910;23.792;2022-12-31T05:37:34;98829.56;;;2.69;88.44
57086;BME280;42964;42.910;23.792;2022-12-31T05:42:33;98830.72;;;2.58;88.91
57086;BME280;42964;42.910;23.792;2022-12-31T05:47:32;98837.56;;;2.57;89.34
57086;BME280;42964;42.910;23.792;2022-12-31T05:52:31;98847.97;;;2.61;89.18
57086;BME280;42964;42.910;23.792;2022-12-31T05:57:30;98847.66;;;2.54;89.44
57086;BME280;42964;42.910;23.792;2022-12-31T06:02:29;98843.28;;;2.52;89.29
57086;BME280;42964;42.910;23.792;2022-12-31T06:07:28;98840.63;;;2.50;89.37
57086;BME280;42964;42.910;23.792;2022-12-31T06:12:27;98850.38;;;2.57;89.27
57086;BME280;42964;42.910;23.792;2022-12-31T06:17:26;98854.41;;;2.52;89.72
57086;BME280;42964;42.910;23.792;2022-12-31T06:22:25;98854.47;;;2.54;90.33
57086;BME280;42964;42.910;23.792;2022-12-31T06:27:24;98861.56;;;2.59;90.51
57086;BME280;42964;42.910;23.792;2022-12-31T06:32:23;98862.00;;;2.69;90.30
57086;BME280;42964;42.910;23.792;2022-12-31T06:37:22;98876.66;;;2.71;90.24
57086;BME280;42964;42.910;23.792;2022-12-31T06:42:21;98884.78;;;2.63;89.80
57086;BME280;42964;42.910;23.792;2022-12-31T06:47:20;98894.66;;;2.55;90.65
57086;BME280;42964;42.910;23.792;2022-12-31T06:52:20;98896.22;;;2.51;90.19
57086;BME280;42964;42.910;23.792;2022-12-31T06:57:19;98909.16;;;2.54;89.55
57086;BME280;42964;42.910;23.792;2022-12-31T07:13:09;98928.97;;;2.75;89.90
57086;BME280;42964;42.910;23.792;2022-12-31T07:23:18;98936.81;;;2.96;89.61
57086;BME280;42964;42.910;23.792;2022-12-31T07:28:21;98944.34;;;3.11;89.98
57086;BME280;42964;42.910;23.792;2022-12-31T07:48:41;98950.91;;;3.79;89.51
57086;BME280;42964;42.910;23.792;2022-12-31T07:53:40;98949.16;;;3.97;89.15
57086;BME280;42964;42.910;23.792;2022-12-31T08:09:18;98946.16;;;4.67;88.09
57086;BME280;42964;42.910;23.792;2022-12-31T08:14:22;98953.94;;;4.90;87.60
57086;BME280;42964;42.910;23.792;2022-12-31T08:19:27;98952.50;;;5.18;87.13
57086;BME280;42964;42.910;23.792;2022-12-31T08:24:35;98948.25;;;5.41;86.57
57086;BME280;42964;42.910;23.792;2022-12-31T08:45:24;98944.59;;;6.53;83.24
57086;BME280;42964;42.910;23.792;2022-12-31T08:50:26;98955.78;;;6.79;82.51
57086;BME280;42964;42.910;23.792;2022-12-31T08:55:25;98942.06;;;7.07;82.47
57086;BME280;42964;42.910;23.792;2022-12-31T09:00:25;98946.41;;;7.35;81.70
57086;BME280;42964;42.910;23.792;2022-12-31T09:11:11;98938.53;;;7.88;79.67
57086;BME280;42964;42.910;23.792;2022-12-31T09:21:12;98919.16;;;8.36;77.42
57086;BME280;42964;42.910;23.792;2022-12-31T09:36:54;98915.03;;;9.12;73.89
57086;BME280;42964;42.910;23.792;2022-12-31T10:30:34;98818.66;;;11.23;62.91
57086;BME280;42964;42.910;23.792;2022-12-31T10:35:53;98809.34;;;11.40;63.05
57086;BME280;42964;42.910;23.792;2022-12-31T11:28:47;98767.69;;;13.45;54.83
57086;BME280;42964;42.910;23.792;2022-12-31T12:00:20;98766.13;;;14.39;50.19
57086;BME280;42964;42.910;23.792;2022-12-31T12:05:22;98766.13;;;14.46;49.34
57086;BME280;42964;42.910;23.792;2022-12-31T12:10:47;98772.22;;;14.51;49.43
57086;BME280;42964;42.910;23.792;2022-12-31T12:15:48;98777.44;;;14.61;48.99
57086;BME280;42964;42.910;23.792;2022-12-31T12:20:48;98773.94;;;14.66;48.20
57086;BME280;42964;42.910;23.792;2022-12-31T12:25:47;98767.88;;;14.73;47.84
57086;BME280;42964;42.910;23.792;2022-12-31T12:30:53;98768.72;;;14.78;47.33
57086;BME280;42964;42.910;23.792;2022-12-31T12:35:53;98779.19;;;14.89;47.04
57086;BME280;42964;42.910;23.792;2022-12-31T12:41:05;98778.31;;;14.93;46.52
57086;BME280;42964;42.910;23.792;2022-12-31T12:46:06;98780.03;;;14.97;46.62
57086;BME280;42964;42.910;23.792;2022-12-31T12:51:32;98782.66;;;14.97;46.65
57086;BME280;42964;42.910;23.792;2022-12-31T12:56:41;98795.72;;;15.00;45.99
57086;BME280;42964;42.910;23.792;2022-12-31T13:12:52;98803.50;;;15.20;45.93
57086;BME280;42964;42.910;23.792;2022-12-31T13:18:11;98806.09;;;15.24;45.93
57086;BME280;42964;42.910;23.792;2022-12-31T13:28:25;98801.78;;;15.20;45.21
57086;BME280;42964;42.910;23.792;2022-12-31T13:33:31;98813.09;;;15.19;45.75
57086;BME280;42964;42.910;23.792;2022-12-31T13:38:35;98816.56;;;15.15;46.01
57086;BME280;42964;42.910;23.792;2022-12-31T13:48:52;98834.91;;;15.08;46.13
57086;BME280;42964;42.910;23.792;2022-12-31T13:59:20;98828.81;;;14.87;46.06
57086;BME280;42964;42.910;23.792;2022-12-31T14:04:51;98824.50;;;14.74;46.78
57086;BME280;42964;42.910;23.792;2022-12-31T14:09:51;98830.53;;;14.47;47.43
57086;BME280;42964;42.910;23.792;2022-12-31T14:15:14;98834.84;;;14.22;48.05
57086;BME280;42964;42.910;23.792;2022-12-31T14:26:03;98840.69;;;13.48;49.23
57086;BME280;42964;42.910;23.792;2022-12-31T14:31:15;98837.91;;;13.13;49.99
57086;BME280;42964;42.910;23.792;2022-12-31T14:42:03;98839.22;;;12.54;51.43
57086;BME280;42964;42.910;23.792;2022-12-31T14:47:39;98841.56;;;12.29;52.23
57086;BME280;42964;42.910;23.792;2022-12-31T14:52:46;98844.72;;;12.01;52.71
57086;BME280;42964;42.910;23.792;2022-12-31T14:57:47;98843.50;;;11.68;53.32
57086;BME280;42964;42.910;23.792;2022-12-31T15:03:22;98867.53;;;11.50;53.98
57086;BME280;42964;42.910;23.792;2022-12-31T15:08:38;98873.31;;;11.29;55.06
57086;BME280;42964;42.910;23.792;2022-12-31T15:19:04;98857.78;;;10.76;56.32
57086;BME280;42964;42.910;23.792;2022-12-31T15:24:21;98868.56;;;10.49;56.97
57086;BME280;42964;42.910;23.792;2022-12-31T15:29:31;98857.72;;;10.23;58.38
57086;BME280;42964;42.910;23.792;2022-12-31T15:34:33;98878.03;;;9.98;58.84
57086;BME280;42964;42.910;23.792;2022-12-31T15:39:38;98883.75;;;9.83;59.02
57086;BME280;42964;42.910;23.792;2022-12-31T15:44:49;98887.84;;;9.70;59.50
57086;BME280;42964;42.910;23.792;2022-12-31T15:49:50;98897.94;;;9.58;60.50
57086;BME280;42964;42.910;23.792;2022-12-31T15:54:53;98914.78;;;9.38;61.48
57086;BME280;42964;42.910;23.792;2022-12-31T15:59:58;98926.72;;;9.31;61.74
57086;BME280;42964;42.910;23.792;2022-12-31T16:04:57;98922.78;;;9.12;62.87
57086;BME280;42964;42.910;23.792;2022-12-31T16:09:57;98926.84;;;9.01;63.39
57086;BME280;42964;42.910;23.792;2022-12-31T16:14:58;98928.44;;;8.96;63.82
57086;BME280;42964;42.910;23.792;2022-12-31T16:19:58;98942.06;;;8.88;64.33
57086;BME280;42964;42.910;23.792;2022-12-31T16:24:59;98949.50;;;8.76;65.30
57086;BME280;42964;42.910;23.792;2022-12-31T16:30:04;98949.94;;;8.60;65.82
57086;BME280;42964;42.910;23.792;2022-12-31T16:40:22;98961.91;;;8.23;67.12
57086;BME280;42964;42.910;23.792;2022-12-31T16:45:42;98959.50;;;7.99;67.77
57086;BME280;42964;42.910;23.792;2022-12-31T16:50:47;98961.78;;;7.88;68.00
57086;BME280;42964;42.910;23.792;2022-12-31T16:55:58;98976.03;;;7.74;69.01
57086;BME280;42964;42.910;23.792;2022-12-31T17:01:16;98973.88;;;7.60;70.11
57086;BME280;42964;42.910;23.792;2022-12-31T17:06:17;98970.97;;;7.50;70.30
57086;BME280;42964;42.910;23.792;2022-12-31T17:11:41;98987.78;;;7.37;70.64
57086;BME280;42964;42.910;23.792;2022-12-31T17:17:03;99002.81;;;7.23;71.64
57086;BME280;42964;42.910;23.792;2022-12-31T17:22:08;99005.88;;;7.11;72.15
57086;BME280;42964;42.910;23.792;2022-12-31T17:27:08;99015.09;;;7.03;72.58
57086;BME280;42964;42.910;23.792;2022-12-31T17:32:36;99025.84;;;6.91;73.57
57086;BME280;42964;42.910;23.792;2022-12-31T17:37:35;99012.97;;;6.66;74.06
57086;BME280;42964;42.910;23.792;2022-12-31T17:42:38;99030.25;;;6.68;74.82
57086;BME280;42964;42.910;23.792;2022-12-31T17:47:39;99019.53;;;6.57;75.24
57086;BME280;42964;42.910;23.792;2022-12-31T17:52:39;99011.41;;;6.47;75.11
57086;BME280;42964;42.910;23.792;2022-12-31T17:57:50;99022.28;;;6.38;75.46
57086;BME280;42964;42.910;23.792;2022-12-31T18:02:50;99025.34;;;6.28;76.67
57086;BME280;42964;42.910;23.792;2022-12-31T18:07:49;99033.47;;;6.14;77.60
57086;BME280;42964;42.910;23.792;2022-12-31T18:12:48;99028.94;;;6.09;77.59
57086;BME280;42964;42.910;23.792;2022-12-31T18:17:47;99012.09;;;5.94;77.93
57086;BME280;42964;42.910;23.792;2022-12-31T18:22:47;99028.16;;;5.87;78.73
57086;BME280;42964;42.910;23.792;2022-12-31T18:27:46;99025.09;;;5.75;78.72
57086;BME280;42964;42.910;23.792;2022-12-31T18:32:45;99027.22;;;5.63;79.49
57086;BME280;42964;42.910;23.792;2022-12-31T18:37:45;99034.78;;;5.60;79.87
57086;BME280;42964;42.910;23.792;2022-12-31T18:42:44;99044.16;;;5.58;79.69
57086;BME280;42964;42.910;23.792;2022-12-31T18:47:43;99049.19;;;5.54;80.19
57086;BME280;42964;42.910;23.792;2022-12-31T18:52:42;99052.09;;;5.41;80.39
57086;BME280;42964;42.910;23.792;2022-12-31T18:57:41;99054.72;;;5.43;81.00
57086;BME280;42964;42.910;23.792;2022-12-31T19:02:40;99054.47;;;5.37;81.08
57086;BME280;42964;42.910;23.792;2022-12-31T19:07:38;99047.00;;;5.22;80.97
57086;BME280;42964;42.910;23.792;2022-12-31T19:12:37;99059.09;;;5.23;81.44
57086;BME280;42964;42.910;23.792;2022-12-31T19:17:36;99057.88;;;5.15;81.42
57086;BME280;42964;42.910;23.792;2022-12-31T19:22:35;99050.78;;;5.09;81.78
57086;BME280;42964;42.910;23.792;2022-12-31T19:27:34;99042.81;;;5.03;81.85
57086;BME280;42964;42.910;23.792;2022-12-31T19:32:33;99047.66;;;4.95;82.25
57086;BME280;42964;42.910;23.792;2022-12-31T19:37:32;99045.53;;;4.86;82.60
57086;BME280;42964;42.910;23.792;2022-12-31T19:42:31;99049.44;;;4.78;82.82
57086;BME280;42964;42.910;23.792;2022-12-31T19:47:30;99052.53;;;4.69;82.79
57086;BME280;42964;42.910;23.792;2022-12-31T19:52:29;99061.53;;;4.60;83.26
57086;BME280;42964;42.910;23.792;2022-12-31T19:57:28;99068.16;;;4.55;83.45
57086;BME280;42964;42.910;23.792;2022-12-31T20:02:27;99068.75;;;4.49;83.49
57086;BME280;42964;42.910;23.792;2022-12-31T20:07:26;99061.25;;;4.34;83.77
57086;BME280;42964;42.910;23.792;2022-12-31T20:12:26;99080.78;;;4.31;83.98
57086;BME280;42964;42.910;23.792;2022-12-31T20:17:25;99076.84;;;4.19;84.50
57086;BME280;42964;42.910;23.792;2022-12-31T20:22:24;99071.44;;;4.13;84.18
57086;BME280;42964;42.910;23.792;2022-12-31T20:27:24;99072.25;;;4.12;85.06
57086;BME280;42964;42.910;23.792;2022-12-31T20:32:23;99076.50;;;4.12;85.06
57086;BME280;42964;42.910;23.792;2022-12-31T20:37:22;99078.75;;;4.04;85.38
57086;BME280;42964;42.910;23.792;2022-12-31T20:42:21;99077.88;;;4.03;85.64
57086;BME280;42964;42.910;23.792;2022-12-31T20:47:20;99076.97;;;4.03;85.65
57086;BME280;42964;42.910;23.792;2022-12-31T20:52:19;99074.34;;;4.01;85.41
57086;BME280;42964;42.910;23.792;2022-12-31T20:57:18;99079.25;;;3.97;85.59
57086;BME280;42964;42.910;23.792;2022-12-31T21:02:17;99084.03;;;3.89;85.84
57086;BME280;42964;42.910;23.792;2022-12-31T21:07:16;99083.44;;;3.77;86.16
57086;BME280;42964;42.910;23.792;2022-12-31T21:12:15;99076.28;;;3.70;86.17
57086;BME280;42964;42.910;23.792;2022-12-31T21:17:33;99073.47;;;3.65;86.64
57086;BME280;42964;42.910;23.792;2022-12-31T21:22:31;99074.31;;;3.64;86.62
57086;BME280;42964;42.910;23.792;2022-12-31T21:27:31;99076.56;;;3.58;86.75
57086;BME280;42964;42.910;23.792;2022-12-31T21:32:30;99079.66;;;3.51;87.64
57086;BME280;42964;42.910;23.792;2022-12-31T21:37:29;99080.31;;;3.47;87.38
57086;BME280;42964;42.910;23.792;2022-12-31T21:42:28;99089.47;;;3.41;87.29
57086;BME280;42964;42.910;23.792;2022-12-31T21:47:27;99079.78;;;3.36;87.60
57086;BME280;42964;42.910;23.792;2022-12-31T21:52:44;99086.31;;;3.29;87.87
57086;BME280;42964;42.910;23.792;2022-12-31T21:57:45;99088.56;;;3.23;87.84
57086;BME280;42964;42.910;23.792;2022-12-31T22:02:44;99093.22;;;3.14;88.67
57086;BME280;42964;42.910;23.792;2022-12-31T22:08:02;99071.06;;;2.98;88.42
57086;BME280;42964;42.910;23.792;2022-12-31T22:13:01;99084.28;;;3.06;88.74
57086;BME280;42964;42.910;23.792;2022-12-31T22:17:59;99087.50;;;3.01;88.29
57086;BME280;42964;42.910;23.792;2022-12-31T22:22:58;99102.41;;;2.92;88.70
57086;BME280;42964;42.910;23.792;2022-12-31T22:27:57;99116.84;;;2.74;89.30
57086;BME280;42964;42.910;23.792;2022-12-31T22:32:56;99114.22;;;2.72;89.37
57086;BME280;42964;42.910;23.792;2022-12-31T22:37:55;99116.06;;;2.75;89.42
57086;BME280;42964;42.910;23.792;2022-12-31T22:42:54;99114.38;;;2.75;89.02
57086;BME280;42964;42.910;23.792;2022-12-31T22:47:53;99093.00;;;2.75;89.29
57086;BME280;42964;42.910;23.792;2022-12-31T22:52:52;99079.78;;;2.67;89.38
57086;BME280;42964;42.910;23.792;2022-12-31T22:57:51;99093.06;;;2.60;89.58
57086;BME280;42964;42.910;23.792;2022-12-31T23:02:50;99099.97;;;2.61;89.60
57086;BME280;42964;42.910;23.792;2022-12-31T23:07:49;99108.38;;;2.58;90.00
57086;BME280;42964;42.910;23.792;2022-12-31T23:12:48;99098.03;;;2.57;89.80
57086;BME280;42964;42.910;23.792;2022-12-31T23:17:47;99105.63;;;2.55;89.76
57086;BME280;42964;42.910;23.792;2022-12-31T23:23:13;99100.38;;;2.52;89.57
57086;BME280;42964;42.910;23.792;2022-12-31T23:28:17;99093.31;;;2.48;89.76
57086;BME280;42964;42.910;23.792;2022-12-31T23:33:22;99093.97;;;2.44;90.25
57086;BME280;42964;42.910;23.792;2022-12-31T23:38:21;99086.97;;;2.42;90.42
57086;BME280;42964;42.910;23.792;2022-12-31T23:43:21;99095.47;;;2.41;90.33
57086;BME280;42964;42.910;23.792;2022-12-31T23:48:20;99096.34;;;2.41;90.17
57086;BME280;42964;42.910;23.792;2022-12-31T23:53:19;99097.81;;;2.36;90.77
57086;BME280;42964;42.910;23.792;2022-12-31T23:58:18;99093.50;;;2.35;90.76
